Time;durP1;ratioP1;P1;durP2;ratioP2;P2;SDS_P1;SDS_P2;PMS_P1;PMS_P2;Temp;Humidity;BMP_temperature;BMP_pressure;BME280_temperature;BME280_humidity;BME280_pressure;Samples;Min_cycle;Max_cycle;Signal;HPM_P1;HPM_P2
2022/12/28 00:01:39;;;;;;;4.23;3.80;;;5.20;99.90;;;;;;5038199;28;20935;-65
2022/12/28 00:04:07;;;;;;;4.30;3.30;;;5.20;99.90;;;;;;5038195;28;20466;-64
2022/12/28 00:06:34;;;;;;;4.13;3.47;;;5.30;99.90;;;;;;5038408;28;20474;-65
2022/12/28 00:09:01;;;;;;;10.30;4.03;;;5.30;99.90;;;;;;5038413;28;20460;-66
2022/12/28 00:11:29;;;;;;;6.33;3.80;;;5.30;99.90;;;;;;5038066;28;20546;-66
2022/12/28 00:13:56;;;;;;;4.50;3.20;;;5.40;99.90;;;;;;5038202;28;20456;-65
2022/12/28 00:16:27;;;;;;;5.70;4.47;;;5.30;99.90;;;;;;5038138;28;20455;-66
2022/12/28 00:18:54;;;;;;;4.97;3.63;;;5.30;99.90;;;;;;5038382;28;20444;-66
2022/12/28 00:21:23;;;;;;;6.63;3.50;;;5.30;99.90;;;;;;5038659;28;20786;-66
2022/12/28 00:23:51;;;;;;;7.70;3.87;;;5.30;99.90;;;;;;5038659;28;20481;-66
2022/12/28 00:26:18;;;;;;;6.07;3.60;;;5.30;99.90;;;;;;5038166;28;20554;-66
2022/12/28 00:28:45;;;;;;;5.47;3.63;;;5.40;99.90;;;;;;5037968;28;20542;-66
2022/12/28 00:31:13;;;;;;;6.40;3.73;;;5.40;99.90;;;;;;5037941;28;20940;-65
2022/12/28 00:33:40;;;;;;;4.87;3.27;;;5.40;99.90;;;;;;5037821;28;20559;-66
2022/12/28 00:36:10;;;;;;;7.80;3.93;;;5.40;99.90;;;;;;5037736;28;20459;-65
2022/12/28 00:38:39;;;;;;;4.20;3.30;;;5.40;99.90;;;;;;5037986;28;20456;-65
2022/12/28 00:41:07;;;;;;;10.63;3.40;;;5.40;99.90;;;;;;5037334;28;20480;-66
2022/12/28 00:43:34;;;;;;;8.57;3.57;;;5.40;99.90;;;;;;5037385;28;20489;-67
2022/12/28 00:46:01;;;;;;;6.37;3.50;;;5.50;99.90;;;;;;5037164;28;20967;-66
2022/12/28 00:48:28;;;;;;;12.60;4.47;;;5.50;99.90;;;;;;5037314;28;20467;-65
2022/12/28 00:51:02;;;;;;;8.37;3.50;;;5.50;99.90;;;;;;5037462;28;20888;-66
2022/12/28 00:53:29;;;;;;;6.60;3.80;;;5.50;99.90;;;;;;5037168;28;20718;-66
2022/12/28 00:56:04;;;;;;;6.70;3.53;;;5.60;99.90;;;;;;5038342;28;20466;-65
2022/12/28 00:58:31;;;;;;;5.40;3.70;;;5.60;99.90;;;;;;5040132;28;20443;-66
2022/12/28 01:00:58;;;;;;;4.27;3.30;;;5.60;99.90;;;;;;5039281;28;20526;-66
2022/12/28 01:03:25;;;;;;;8.23;3.97;;;5.60;99.90;;;;;;5039362;28;20541;-66
2022/12/28 01:05:52;;;;;;;8.00;4.23;;;5.60;99.90;;;;;;5039223;28;20756;-66
2022/12/28 01:08:19;;;;;;;4.10;3.30;;;5.60;99.90;;;;;;5038469;28;20456;-66
2022/12/28 01:10:46;;;;;;;7.90;3.43;;;5.60;99.90;;;;;;5041189;28;20984;-67
2022/12/28 01:13:14;;;;;;;7.73;3.20;;;5.50;99.90;;;;;;5038328;28;20909;-66
2022/12/28 01:15:41;;;;;;;6.50;3.00;;;5.50;99.90;;;;;;5037743;28;20518;-67
2022/12/28 01:18:08;;;;;;;5.20;3.70;;;5.50;99.90;;;;;;5037745;28;20473;-66
2022/12/28 01:20:34;;;;;;;4.93;3.10;;;5.60;99.90;;;;;;5037098;28;20994;-66
2022/12/28 01:23:01;;;;;;;9.73;3.83;;;5.60;99.90;;;;;;5037637;28;20547;-66
2022/12/28 01:25:28;;;;;;;6.00;3.57;;;5.50;99.90;;;;;;5037725;28;20460;-66
2022/12/28 01:27:55;;;;;;;8.70;3.27;;;5.50;99.90;;;;;;5037388;28;20462;-66
2022/12/28 01:30:23;;;;;;;5.23;3.53;;;5.50;99.90;;;;;;5038278;28;20494;-65
2022/12/28 01:32:50;;;;;;;8.23;3.87;;;5.60;99.90;;;;;;5038163;28;20542;-66
2022/12/28 01:35:17;;;;;;;8.50;3.57;;;5.60;99.90;;;;;;5038101;28;20543;-66
2022/12/28 01:37:44;;;;;;;4.23;3.10;;;5.60;99.90;;;;;;5036351;28;20576;-65
2022/12/28 01:40:14;;;;;;;3.70;3.33;;;5.60;99.90;;;;;;5036436;28;20506;-67
2022/12/28 01:42:41;;;;;;;6.93;3.03;;;5.60;99.90;;;;;;5036367;28;20463;-66
2022/12/28 01:45:20;;;;;;;5.77;3.07;;;5.60;99.90;;;;;;5036654;28;20470;-66
2022/12/28 01:47:52;;;;;;;7.77;3.20;;;5.60;99.90;;;;;;5036538;28;20459;-67
2022/12/28 01:50:25;;;;;;;5.50;3.37;;;5.60;99.90;;;;;;5036213;28;20444;-67
2022/12/28 01:52:55;;;;;;;4.77;3.67;;;5.60;99.90;;;;;;5036528;28;20451;-66
2022/12/28 01:55:25;;;;;;;5.30;2.90;;;5.60;99.90;;;;;;5036060;28;20547;-66
2022/12/28 01:57:56;;;;;;;8.97;3.63;;;5.60;99.90;;;;;;5036166;28;20785;-66
2022/12/28 02:00:23;;;;;;;4.00;3.60;;;5.60;99.90;;;;;;5036197;28;20758;-67
2022/12/28 02:02:56;;;;;;;5.37;3.13;;;5.60;99.90;;;;;;5036021;28;20459;-66
2022/12/28 02:05:26;;;;;;;6.60;3.60;;;5.60;99.90;;;;;;5036352;28;20535;-67
2022/12/28 02:07:57;;;;;;;5.47;3.27;;;5.50;99.90;;;;;;5035828;28;20460;-66
2022/12/28 02:10:26;;;;;;;9.37;3.13;;;5.50;99.90;;;;;;5035984;28;20447;-66
2022/12/28 02:12:54;;;;;;;4.17;3.20;;;5.50;99.90;;;;;;5035879;28;20566;-66
2022/12/28 02:15:21;;;;;;;6.27;3.23;;;5.50;99.90;;;;;;5035526;28;20467;-66
2022/12/28 02:17:48;;;;;;;6.40;4.10;;;5.50;99.90;;;;;;5035824;28;20470;-67
2022/12/28 02:20:16;;;;;;;7.23;3.60;;;5.40;99.90;;;;;;5035592;28;20480;-67
2022/12/28 02:23:12;;;;;;;7.83;4.17;;;5.40;99.90;;;;;;5035853;28;20496;-66
2022/12/28 02:26:11;;;;;;;6.53;3.70;;;5.40;99.90;;;;;;5035844;28;20445;-66
2022/12/28 02:29:05;;;;;;;5.43;3.13;;;5.30;99.90;;;;;;5017200;28;20456;-66
2022/12/28 02:31:40;;;;;;;12.40;3.43;;;5.30;99.90;;;;;;5023701;28;20937;-66
2022/12/28 02:34:14;;;;;;;4.80;3.80;;;5.20;99.90;;;;;;5035499;28;20448;-66
2022/12/28 02:36:46;;;;;;;4.00;3.57;;;5.20;99.90;;;;;;5035432;28;20443;-67
2022/12/28 02:39:19;;;;;;;5.80;3.83;;;5.20;99.90;;;;;;5035988;28;20506;-66
2022/12/28 02:41:47;;;;;;;3.83;3.23;;;5.20;99.90;;;;;;5035157;28;20928;-66
2022/12/28 02:50:04;;;;;;;7.90;3.70;;;5.10;99.90;;;;;;5027670;28;20462;-67
2022/12/28 02:50:05;;;;;;;8.93;3.70;;;5.10;99.90;;;;;;5035290;28;20576;-67
2022/12/28 02:52:56;;;;;;;4.07;3.50;;;5.10;99.90;;;;;;5029761;28;20437;-66
2022/12/28 02:58:46;;;;;;;5.87;3.70;;;5.10;99.90;;;;;;5035206;28;20424;-66
2022/12/28 03:01:26;;;;;;;10.67;4.40;;;5.10;99.90;;;;;;5032226;28;20484;-68
2022/12/28 03:04:04;;;;;;;5.73;3.90;;;5.10;99.90;;;;;;5035074;28;20440;-67
2022/12/28 03:09:31;;;;;;;4.87;4.10;;;5.10;99.90;;;;;;5035062;28;20428;-66
2022/12/28 03:12:06;;;;;;;5.50;3.73;;;5.10;99.90;;;;;;5034643;28;20535;-69
2022/12/28 03:14:37;;;;;;;7.03;4.10;;;5.00;99.90;;;;;;5034509;28;20444;-66
2022/12/28 03:31:11;;;;;;;5.63;3.87;;;5.10;99.90;;;;;;5035535;28;20748;-67
2022/12/28 03:33:43;;;;;;;5.47;3.83;;;5.10;99.90;;;;;;5035352;28;20511;-66
2022/12/28 03:36:17;;;;;;;8.03;4.40;;;5.10;99.90;;;;;;5035297;28;20468;-66
2022/12/28 03:38:59;;;;;;;5.90;3.87;;;5.00;99.90;;;;;;5035416;28;20432;-67
2022/12/28 03:41:30;;;;;;;5.37;3.63;;;5.00;99.90;;;;;;5034838;28;20482;-66
2022/12/28 03:44:04;;;;;;;8.60;4.13;;;5.00;99.90;;;;;;5035179;28;20531;-68
2022/12/28 03:46:36;;;;;;;6.30;3.70;;;5.00;99.90;;;;;;5034631;28;20492;-67
2022/12/28 03:49:05;;;;;;;4.03;3.07;;;5.00;99.90;;;;;;5035219;28;20444;-67
2022/12/28 03:51:33;;;;;;;9.47;3.57;;;4.90;99.90;;;;;;5034481;28;20925;-66
2022/12/28 03:54:00;;;;;;;4.37;3.60;;;4.90;99.90;;;;;;5034638;28;20921;-68
2022/12/28 03:56:28;;;;;;;9.20;3.80;;;4.90;99.90;;;;;;5034913;28;20539;-67
2022/12/28 03:58:55;;;;;;;7.63;3.90;;;4.90;99.90;;;;;;5034997;28;20474;-68
2022/12/28 04:01:22;;;;;;;5.00;3.53;;;4.80;99.90;;;;;;5034670;28;20952;-68
2022/12/28 04:03:49;;;;;;;7.13;3.80;;;4.80;99.90;;;;;;5034595;28;20491;-68
2022/12/28 04:06:20;;;;;;;7.10;3.70;;;4.70;99.90;;;;;;5034480;28;20460;-67
2022/12/28 04:08:47;;;;;;;8.07;4.20;;;4.70;99.90;;;;;;5034871;28;20476;-67
2022/12/28 04:11:14;;;;;;;7.17;3.80;;;4.70;99.90;;;;;;5034959;28;20535;-67
2022/12/28 04:13:41;;;;;;;6.20;4.17;;;4.70;99.90;;;;;;5035037;28;20448;-66
2022/12/28 04:16:10;;;;;;;7.27;3.60;;;4.70;99.90;;;;;;5035001;28;20769;-67
2022/12/28 04:18:37;;;;;;;4.97;3.90;;;4.70;99.90;;;;;;5034745;28;20460;-67
2022/12/28 04:21:04;;;;;;;5.40;3.30;;;4.70;99.90;;;;;;5034427;28;20479;-66
2022/12/28 04:23:33;;;;;;;7.20;4.07;;;4.60;99.90;;;;;;5034688;28;20544;-68
2022/12/28 04:26:01;;;;;;;6.00;3.50;;;4.60;99.90;;;;;;5035112;28;20467;-67
2022/12/28 04:28:29;;;;;;;4.87;3.50;;;4.60;99.90;;;;;;5038652;28;20466;-67
2022/12/28 04:30:57;;;;;;;3.90;3.50;;;4.60;99.90;;;;;;5037906;28;20547;-67
2022/12/28 04:33:24;;;;;;;9.33;3.40;;;4.60;99.90;;;;;;5038210;28;20943;-67
2022/12/28 04:35:51;;;;;;;7.30;3.63;;;4.50;99.90;;;;;;5038738;28;20789;-67
2022/12/28 04:38:18;;;;;;;6.73;3.87;;;4.60;99.90;;;;;;5038484;28;20456;-67
2022/12/28 04:40:47;;;;;;;6.23;3.80;;;4.50;99.90;;;;;;5038222;28;20981;-67
2022/12/28 04:43:13;;;;;;;8.13;3.20;;;4.60;99.90;;;;;;5038432;28;20468;-68
2022/12/28 04:45:40;;;;;;;7.73;2.87;;;4.60;99.90;;;;;;5038115;28;20814;-68
2022/12/28 04:48:07;;;;;;;6.50;3.30;;;4.60;99.90;;;;;;5038097;28;20455;-68
2022/12/28 04:50:36;;;;;;;7.47;3.83;;;4.60;99.90;;;;;;5038125;28;20491;-68
2022/12/28 04:53:02;;;;;;;3.10;2.80;;;4.60;99.90;;;;;;5037908;28;20459;-67
2022/12/28 04:55:29;;;;;;;3.37;3.03;;;4.60;99.90;;;;;;5037945;28;20462;-66
2022/12/28 04:57:57;;;;;;;11.70;3.10;;;4.60;99.90;;;;;;5038244;28;20753;-68
2022/12/28 05:00:24;;;;;;;5.40;3.43;;;4.60;99.90;;;;;;5037925;28;20456;-67
2022/12/28 05:02:51;;;;;;;5.30;3.10;;;4.50;99.90;;;;;;5041828;28;20488;-67
2022/12/28 05:05:18;;;;;;;5.27;2.70;;;4.50;99.90;;;;;;5043794;28;20479;-67
2022/12/28 05:07:45;;;;;;;5.33;3.30;;;4.50;99.90;;;;;;5038649;28;20547;-68
2022/12/28 05:10:12;;;;;;;8.00;3.60;;;4.50;99.90;;;;;;5038955;28;20455;-67
2022/12/28 05:12:38;;;;;;;5.20;3.30;;;4.50;99.90;;;;;;5037617;28;20855;-68
2022/12/28 05:15:08;;;;;;;6.53;3.03;;;4.50;99.90;;;;;;5037513;28;20483;-67
2022/12/28 05:17:35;;;;;;;6.23;3.47;;;4.40;99.90;;;;;;5038572;28;20486;-68
2022/12/28 05:20:02;;;;;;;6.77;2.80;;;4.50;99.90;;;;;;5038393;28;20460;-67
2022/12/28 05:22:28;;;;;;;3.43;3.13;;;4.50;99.90;;;;;;5038193;28;20964;-66
2022/12/28 05:24:55;;;;;;;5.17;2.73;;;4.50;99.90;;;;;;5037359;28;20460;-67
2022/12/28 05:27:22;;;;;;;6.83;3.10;;;4.50;99.90;;;;;;5037986;28;20460;-68
2022/12/28 05:29:49;;;;;;;4.00;2.87;;;4.50;99.90;;;;;;5037067;28;20547;-68
2022/12/28 05:32:17;;;;;;;4.17;2.97;;;4.60;99.90;;;;;;5037361;28;20452;-68
2022/12/28 05:34:44;;;;;;;4.03;2.57;;;4.50;99.90;;;;;;5037227;28;20466;-67
2022/12/28 05:37:11;;;;;;;4.80;2.80;;;4.60;99.90;;;;;;5037005;28;20868;-68
2022/12/28 05:39:38;;;;;;;3.73;2.80;;;4.60;99.90;;;;;;5037300;28;20455;-67
2022/12/28 05:42:05;;;;;;;5.93;2.73;;;4.60;99.90;;;;;;5037530;28;20480;-67
2022/12/28 05:44:32;;;;;;;4.43;2.73;;;4.60;99.90;;;;;;5037201;28;20463;-67
2022/12/28 05:46:58;;;;;;;5.83;2.80;;;4.60;99.90;;;;;;5037645;28;20566;-66
2022/12/28 05:49:27;;;;;;;3.40;2.67;;;4.60;99.90;;;;;;5037240;28;20456;-67
2022/12/28 05:51:53;;;;;;;4.80;2.73;;;4.60;99.90;;;;;;5037497;28;20718;-67
2022/12/28 05:54:20;;;;;;;3.93;2.57;;;4.60;99.90;;;;;;5037141;28;20455;-68
2022/12/28 05:56:50;;;;;;;3.97;2.67;;;4.60;99.90;;;;;;5036705;28;20466;-67
2022/12/28 05:59:18;;;;;;;4.13;2.50;;;4.60;99.90;;;;;;5036602;28;20514;-67
2022/12/28 06:01:45;;;;;;;2.50;2.10;;;4.70;99.90;;;;;;5036833;28;20480;-68
2022/12/28 06:04:15;;;;;;;4.53;2.83;;;4.70;99.90;;;;;;5036749;28;20495;-67
2022/12/28 06:06:45;;;;;;;3.80;2.50;;;4.70;99.90;;;;;;5036842;28;20451;-66
2022/12/28 06:09:12;;;;;;;4.30;2.33;;;4.70;99.90;;;;;;5036716;28;20986;-67
2022/12/28 06:11:39;;;;;;;2.90;2.10;;;4.70;99.90;;;;;;5036836;28;20451;-67
2022/12/28 06:14:06;;;;;;;4.87;2.40;;;4.80;99.90;;;;;;5037041;28;20500;-68
2022/12/28 06:16:35;;;;;;;4.30;2.20;;;4.80;99.90;;;;;;5036618;28;20462;-67
2022/12/28 06:19:05;;;;;;;6.97;2.27;;;4.80;99.90;;;;;;5036753;28;20456;-67
2022/12/28 06:21:34;;;;;;;2.57;1.90;;;4.80;99.90;;;;;;5036752;28;20534;-66
2022/12/28 06:24:02;;;;;;;8.60;2.80;;;4.90;99.90;;;;;;5036271;28;20460;-68
2022/12/28 06:26:31;;;;;;;3.27;2.10;;;4.90;99.90;;;;;;5036273;28;20452;-65
2022/12/28 06:28:58;;;;;;;3.90;2.10;;;4.90;99.90;;;;;;5035949;28;20466;-67
2022/12/28 06:31:27;;;;;;;2.00;1.80;;;4.90;99.90;;;;;;5036113;28;20475;-67
2022/12/28 06:33:55;;;;;;;4.33;2.17;;;4.90;99.90;;;;;;5036406;28;20455;-67
2022/12/28 06:36:24;;;;;;;5.47;2.70;;;5.00;99.90;;;;;;5035918;28;20495;-66
2022/12/28 06:38:53;;;;;;;5.27;2.00;;;5.00;99.90;;;;;;5036561;28;20795;-68
2022/12/28 06:41:22;;;;;;;4.73;2.10;;;5.00;99.90;;;;;;5036481;28;20475;-67
2022/12/28 06:43:49;;;;;;;6.80;2.23;;;5.00;99.90;;;;;;5036247;28;20456;-67
2022/12/28 06:46:17;;;;;;;2.53;2.33;;;5.10;99.90;;;;;;5036020;28;20527;-67
2022/12/28 06:48:44;;;;;;;6.83;2.80;;;5.00;99.90;;;;;;5036792;28;20554;-66
2022/12/28 06:51:13;;;;;;;3.60;2.40;;;5.00;99.90;;;;;;5034716;28;20946;-66
2022/12/28 06:53:40;;;;;;;4.90;2.60;;;5.00;99.90;;;;;;5036010;28;20486;-68
2022/12/28 06:56:10;;;;;;;4.67;2.60;;;4.90;99.90;;;;;;5036060;28;20474;-66
2022/12/28 06:58:39;;;;;;;3.60;2.00;;;4.80;99.90;;;;;;5035599;28;20538;-68
2022/12/28 07:01:07;;;;;;;4.33;2.73;;;4.70;99.90;;;;;;5035084;28;20474;-68
2022/12/28 07:03:34;;;;;;;4.80;2.47;;;4.70;99.90;;;;;;5035287;28;20781;-67
2022/12/28 07:06:02;;;;;;;5.37;2.73;;;4.70;99.90;;;;;;5035507;28;20786;-67
2022/12/28 07:08:29;;;;;;;6.10;2.90;;;4.70;99.90;;;;;;5035313;28;20543;-67
2022/12/28 07:11:01;;;;;;;4.60;2.60;;;4.60;99.90;;;;;;5035603;28;20452;-67
2022/12/28 07:13:28;;;;;;;2.90;2.33;;;4.60;99.90;;;;;;5035507;28;20476;-68
2022/12/28 07:15:56;;;;;;;3.90;2.57;;;4.60;99.90;;;;;;5035309;28;20457;-67
2022/12/28 07:18:23;;;;;;;5.50;2.70;;;4.70;99.90;;;;;;5035471;28;20455;-68
2022/12/28 07:20:50;;;;;;;7.57;3.17;;;4.70;99.90;;;;;;5035010;28;20947;-68
2022/12/28 07:23:17;;;;;;;7.27;2.93;;;4.70;99.90;;;;;;5034940;28;20516;-67
2022/12/28 07:25:44;;;;;;;4.67;2.77;;;4.70;99.90;;;;;;5035294;28;20466;-67
2022/12/28 07:28:11;;;;;;;5.70;2.63;;;4.70;99.90;;;;;;5035726;28;20924;-67
2022/12/28 07:30:37;;;;;;;3.37;2.67;;;4.70;99.90;;;;;;5036371;28;20559;-67
2022/12/28 07:33:06;;;;;;;4.90;2.90;;;4.80;99.90;;;;;;5036264;28;20763;-66
2022/12/28 07:35:32;;;;;;;6.30;2.97;;;4.80;99.90;;;;;;5036364;28;20470;-66
2022/12/28 07:37:59;;;;;;;6.60;2.90;;;4.80;99.90;;;;;;5035136;28;20861;-66
2022/12/28 07:40:26;;;;;;;4.63;2.87;;;4.90;99.90;;;;;;5035504;28;20464;-67
2022/12/28 07:42:53;;;;;;;2.70;2.50;;;4.90;99.90;;;;;;5035373;28;20956;-67
2022/12/28 07:45:20;;;;;;;7.90;2.87;;;4.90;99.90;;;;;;5035525;28;20494;-66
2022/12/28 07:47:47;;;;;;;5.70;3.30;;;5.00;99.90;;;;;;5035318;28;20452;-67
2022/12/28 07:50:15;;;;;;;4.90;3.00;;;5.00;99.90;;;;;;5027180;28;20537;-67
2022/12/28 07:52:42;;;;;;;4.60;3.13;;;5.00;99.90;;;;;;5035275;28;20452;-67
2022/12/28 07:55:09;;;;;;;4.10;3.57;;;5.10;99.90;;;;;;5035234;28;20459;-67
2022/12/28 07:57:35;;;;;;;4.00;3.10;;;5.10;99.90;;;;;;5035221;28;20951;-65
2022/12/28 08:00:03;;;;;;;3.73;2.90;;;5.10;99.90;;;;;;5034739;28;20455;-67
2022/12/28 08:02:30;;;;;;;5.63;3.23;;;5.20;99.90;;;;;;5037841;28;20479;-67
2022/12/28 08:04:57;;;;;;;5.17;2.80;;;5.10;99.90;;;;;;5039325;28;20463;-68
2022/12/28 08:07:26;;;;;;;7.30;3.23;;;5.10;99.90;;;;;;5039143;28;20459;-67
2022/12/28 08:09:52;;;;;;;4.67;3.00;;;5.20;99.90;;;;;;5039711;28;20460;-67
2022/12/28 08:12:20;;;;;;;5.20;2.97;;;5.10;99.90;;;;;;5039099;28;20456;-67
2022/12/28 08:14:46;;;;;;;4.37;3.10;;;5.10;99.90;;;;;;5038803;28;20495;-67
2022/12/28 08:17:13;;;;;;;4.67;3.30;;;5.10;99.90;;;;;;5031335;28;20456;-66
2022/12/28 08:19:40;;;;;;;3.80;2.83;;;5.10;99.90;;;;;;5038872;28;20460;-67
2022/12/28 08:22:07;;;;;;;7.73;3.53;;;5.10;99.90;;;;;;5039114;28;20484;-67
2022/12/28 08:24:35;;;;;;;8.53;3.70;;;5.10;99.90;;;;;;5039209;28;20780;-67
2022/12/28 08:27:02;;;;;;;3.73;2.90;;;5.20;99.90;;;;;;5039018;28;20535;-67
2022/12/28 08:29:29;;;;;;;5.30;3.20;;;5.20;99.90;;;;;;5039013;28;20498;-67
2022/12/28 08:31:56;;;;;;;10.80;4.30;;;5.20;99.90;;;;;;5039292;28;20452;-67
2022/12/28 08:34:25;;;;;;;4.43;3.30;;;5.20;99.90;;;;;;5038830;28;20466;-67
2022/12/28 08:36:52;;;;;;;5.63;2.93;;;5.30;99.90;;;;;;5039198;28;20463;-68
2022/12/28 08:39:19;;;;;;;6.83;3.30;;;5.30;99.90;;;;;;5039022;28;20456;-66
2022/12/28 08:41:47;;;;;;;6.53;3.97;;;5.30;99.90;;;;;;5039062;28;20554;-67
2022/12/28 08:44:14;;;;;;;5.67;3.90;;;5.30;99.90;;;;;;5039298;28;20535;-67
2022/12/28 08:46:41;;;;;;;6.07;3.43;;;5.40;99.90;;;;;;5039539;28;20574;-67
2022/12/28 08:49:08;;;;;;;5.37;3.30;;;5.50;99.90;;;;;;5039722;28;20455;-68
2022/12/28 08:51:38;;;;;;;7.20;2.80;;;5.50;99.90;;;;;;5039180;28;20470;-66
2022/12/28 08:54:06;;;;;;;6.27;2.90;;;5.60;99.90;;;;;;5038580;28;20495;-68
2022/12/28 08:56:35;;;;;;;5.80;3.00;;;5.60;99.90;;;;;;5038469;28;20456;-67
2022/12/28 08:59:05;;;;;;;8.10;3.87;;;5.60;99.90;;;;;;5038474;28;20554;-66
2022/12/28 09:01:34;;;;;;;4.70;3.33;;;5.70;99.90;;;;;;5038206;28;20498;-67
2022/12/28 09:04:01;;;;;;;5.57;3.00;;;5.70;99.90;;;;;;5037909;28;20570;-68
2022/12/28 09:06:31;;;;;;;3.27;2.97;;;5.70;99.90;;;;;;5038515;28;20456;-66
2022/12/28 09:08:59;;;;;;;4.60;3.00;;;5.80;99.90;;;;;;5038092;28;20510;-67
2022/12/28 09:11:26;;;;;;;5.97;2.93;;;5.90;99.90;;;;;;5037652;28;20460;-68
2022/12/28 09:13:54;;;;;;;4.37;2.70;;;5.90;99.90;;;;;;5036931;28;20452;-68
2022/12/28 09:16:25;;;;;;;2.47;2.27;;;5.90;99.90;;;;;;5037854;28;20955;-67
2022/12/28 09:18:54;;;;;;;3.20;2.57;;;6.00;99.90;;;;;;5037946;28;20855;-67
2022/12/28 09:21:22;;;;;;;3.67;2.70;;;6.00;99.90;;;;;;5038032;28;20452;-67
2022/12/28 09:23:49;;;;;;;5.80;3.00;;;6.00;99.90;;;;;;5037833;28;20480;-67
2022/12/28 09:26:18;;;;;;;4.30;2.90;;;6.00;99.90;;;;;;5038042;28;20460;-66
2022/12/28 09:28:46;;;;;;;5.67;3.00;;;6.00;99.90;;;;;;5037738;28;20466;-67
2022/12/28 09:31:13;;;;;;;6.90;3.00;;;6.00;99.90;;;;;;5038097;28;20466;-67
2022/12/28 09:34:00;;;;;;;4.57;2.60;;;6.10;99.90;;;;;;5037912;28;20462;-67
2022/12/28 09:36:28;;;;;;;5.67;3.27;;;6.10;99.90;;;;;;5038096;28;20506;-67
2022/12/28 09:38:55;;;;;;;5.23;3.27;;;6.20;99.90;;;;;;5038625;28;20495;-66
2022/12/28 09:41:28;;;;;;;3.20;2.90;;;6.20;99.90;;;;;;5038195;28;20550;-66
2022/12/28 09:44:04;;;;;;;3.40;2.83;;;6.20;99.90;;;;;;5038047;28;20629;-67
2022/12/28 09:46:33;;;;;;;6.23;3.40;;;6.20;99.90;;;;;;5037582;28;20541;-66
2022/12/28 09:49:04;;;;;;;6.63;2.80;;;6.30;99.90;;;;;;5037943;28;20516;-67
2022/12/28 09:51:35;;;;;;;5.40;3.07;;;6.30;99.90;;;;;;5037536;28;20535;-68
2022/12/28 09:54:04;;;;;;;4.10;2.67;;;6.40;99.90;;;;;;5037602;28;20881;-67
2022/12/28 09:56:35;;;;;;;6.13;4.13;;;6.40;99.90;;;;;;5037217;28;20460;-68
2022/12/28 09:59:03;;;;;;;5.00;2.73;;;6.50;99.90;;;;;;5037156;28;20479;-68
2022/12/28 10:01:32;;;;;;;5.77;2.90;;;6.50;99.90;;;;;;5036995;28;20452;-66
2022/12/28 10:04:02;;;;;;;8.23;2.80;;;6.60;99.90;;;;;;5036758;28;20487;-68
2022/12/28 10:06:34;;;;;;;5.23;2.67;;;6.60;99.90;;;;;;5037076;28;20466;-67
2022/12/28 10:09:02;;;;;;;3.17;2.20;;;6.60;99.90;;;;;;5037771;28;20440;-66
2022/12/28 10:11:33;;;;;;;6.10;2.57;;;6.60;99.90;;;;;;5036700;28;20531;-67
2022/12/28 10:14:02;;;;;;;7.37;3.23;;;6.60;99.90;;;;;;5036811;28;20768;-67
2022/12/28 10:16:31;;;;;;;3.70;3.10;;;6.70;99.90;;;;;;5037779;28;20456;-68
2022/12/28 10:18:59;;;;;;;4.97;2.57;;;6.70;99.90;;;;;;5056616;28;20469;-67
2022/12/28 10:21:31;;;;;;;4.30;2.90;;;6.80;99.90;;;;;;5056530;28;20514;-68
2022/12/28 10:23:59;;;;;;;3.43;2.70;;;6.80;99.90;;;;;;5056372;28;20475;-66
2022/12/28 10:26:27;;;;;;;7.23;3.23;;;6.80;99.90;;;;;;5056796;28;20469;-68
2022/12/28 10:28:58;;;;;;;3.47;2.77;;;6.90;99.90;;;;;;5056021;28;20455;-68
2022/12/28 10:31:33;;;;;;;5.53;3.30;;;6.90;99.90;;;;;;5055525;28;20530;-68
2022/12/28 10:34:00;;;;;;;3.70;3.30;;;6.90;99.90;;;;;;5055728;28;20455;-68
2022/12/28 10:36:33;;;;;;;4.00;2.60;;;6.90;99.90;;;;;;5055462;28;20911;-66
2022/12/28 10:39:01;;;;;;;3.23;2.43;;;6.90;99.90;;;;;;5055360;28;20450;-68
2022/12/28 10:41:36;;;;;;;3.03;2.73;;;6.90;99.90;;;;;;5055781;28;20791;-67
2022/12/28 10:44:18;;;;;;;7.60;3.23;;;6.90;99.90;;;;;;5055817;28;20467;-68
2022/12/28 10:46:58;;;;;;;3.47;2.73;;;6.90;99.90;;;;;;5055805;28;20482;-68
2022/12/28 10:49:26;;;;;;;3.50;3.20;;;6.90;99.90;;;;;;5055313;28;20474;-67
2022/12/28 10:52:06;;;;;;;6.87;3.50;;;6.90;99.90;;;;;;5055654;28;20459;-68
2022/12/28 10:54:36;;;;;;;4.03;2.90;;;6.90;99.90;;;;;;5055875;28;20526;-67
2022/12/28 10:57:03;;;;;;;6.60;3.27;;;6.90;99.90;;;;;;5055100;28;20455;-68
2022/12/28 10:59:31;;;;;;;7.73;4.80;;;7.00;99.90;;;;;;5056195;28;20455;-68
2022/12/28 11:02:21;;;;;;;3.87;2.40;;;7.00;99.90;;;;;;5035618;28;20554;-68
2022/12/28 11:04:56;;;;;;;3.90;2.90;;;7.10;99.90;;;;;;5035434;28;20710;-69
2022/12/28 11:07:35;;;;;;;4.27;3.03;;;7.20;99.90;;;;;;5035052;28;20462;-68
2022/12/28 11:10:25;;;;;;;3.87;3.00;;;7.30;99.90;;;;;;5035469;28;20768;-68
2022/12/28 11:12:53;;;;;;;5.70;3.97;;;7.40;99.90;;;;;;5035248;28;20741;-68
2022/12/28 11:15:22;;;;;;;3.77;2.97;;;7.50;99.90;;;;;;5035547;28;20452;-67
2022/12/28 11:17:55;;;;;;;6.60;2.80;;;7.50;99.90;;;;;;5035518;28;20455;-67
2022/12/28 11:20:25;;;;;;;4.10;2.70;;;7.50;99.90;;;;;;5041507;28;20789;-68
2022/12/28 11:22:54;;;;;;;5.57;2.57;;;7.60;99.90;;;;;;5054963;28;21065;-68
2022/12/28 11:25:28;;;;;;;4.00;2.60;;;7.70;99.90;;;;;;5055291;28;20465;-67
2022/12/28 11:27:55;;;;;;;3.10;2.53;;;7.70;99.90;;;;;;5054787;28;20490;-67
2022/12/28 11:30:22;;;;;;;3.20;2.60;;;7.80;99.90;;;;;;5055458;28;20797;-68
2022/12/28 11:32:51;;;;;;;5.60;2.60;;;7.80;99.90;;;;;;5055000;28;20530;-68
2022/12/28 11:35:20;;;;;;;4.07;3.00;;;7.80;99.90;;;;;;5054934;28;20455;-67
2022/12/28 11:37:53;;;;;;;9.00;2.30;;;7.90;99.90;;;;;;5054179;28;20469;-68
2022/12/28 11:40:49;;;;;;;4.33;2.80;;;7.90;99.90;;;;;;5055215;28;20454;-66
2022/12/28 11:43:39;;;;;;;3.33;2.40;;;8.00;99.90;;;;;;5009492;28;20505;-67
2022/12/28 11:46:08;;;;;;;3.27;2.33;;;8.00;99.90;;;;;;5055063;28;20483;-68
2022/12/28 11:48:45;;;;;;;3.30;2.60;;;8.10;99.90;;;;;;5055365;28;20455;-66
2022/12/28 11:51:16;;;;;;;6.47;2.50;;;8.20;99.90;;;;;;5054663;28;20894;-66
2022/12/28 11:53:53;;;;;;;3.80;2.43;;;8.30;99.90;;;;;;5054672;28;20435;-67
2022/12/28 11:56:22;;;;;;;3.63;2.23;;;8.30;99.90;;;;;;5054318;28;20449;-66
2022/12/28 11:59:19;;;;;;;3.10;2.07;;;8.40;99.90;;;;;;5054306;28;20459;-66
2022/12/28 12:01:51;;;;;;;4.33;2.27;;;8.40;99.90;;;;;;5054245;28;20443;-72
2022/12/28 12:04:44;;;;;;;3.40;1.77;;;8.50;99.90;;;;;;5053970;28;20586;-66
2022/12/28 12:07:26;;;;;;;2.37;2.07;;;8.50;99.90;;;;;;5054609;28;20467;-67
2022/12/28 12:10:35;;;;;;;2.93;2.10;;;8.60;99.90;;;;;;5054626;28;20450;-67
2022/12/28 12:13:39;;;;;;;2.60;2.20;;;8.70;99.90;;;;;;5054462;28;20914;-67
2022/12/28 12:16:18;;;;;;;2.77;1.87;;;8.80;99.90;;;;;;5050386;28;20796;-67
2022/12/28 12:18:49;;;;;;;2.87;2.40;;;8.90;99.90;;;;;;5053977;28;20883;-68
2022/12/28 12:21:28;;;;;;;3.07;2.07;;;9.00;99.90;;;;;;5053999;28;20531;-67
2022/12/28 12:24:03;;;;;;;2.53;1.93;;;9.10;99.90;;;;;;5054421;28;20557;-68
2022/12/28 12:26:37;;;;;;;2.30;1.90;;;9.20;99.90;;;;;;5054154;28;20453;-67
2022/12/28 12:29:12;;;;;;;3.03;2.00;;;9.40;99.90;;;;;;5054187;28;20909;-67
2022/12/28 12:31:43;;;;;;;2.43;2.23;;;9.90;99.90;;;;;;5054683;28;20453;-68
2022/12/28 12:34:17;;;;;;;3.23;1.90;;;10.80;99.90;;;;;;5053967;28;20436;-68
2022/12/28 12:37:28;;;;;;;2.77;1.83;;;11.60;99.90;;;;;;5053871;28;20443;-66
2022/12/28 12:40:22;;;;;;;2.60;1.80;;;12.00;99.90;;;;;;5053768;28;20443;-67
2022/12/28 12:43:06;;;;;;;5.03;1.60;;;12.80;99.90;;;;;;5053337;28;20906;-68
2022/12/28 12:45:44;;;;;;;2.70;1.87;;;12.90;99.90;;;;;;5053283;28;20574;-67
2022/12/28 12:48:33;;;;;;;3.17;1.90;;;12.40;99.90;;;;;;5054236;28;20438;-67
2022/12/28 12:51:15;;;;;;;3.80;2.00;;;11.90;99.90;;;;;;5044744;28;20866;-68
2022/12/28 12:53:58;;;;;;;2.53;1.80;;;11.40;99.90;;;;;;5057450;28;20769;-67
2022/12/28 12:56:36;;;;;;;3.10;2.07;;;10.90;99.90;;;;;;5057742;28;20443;-67
2022/12/28 12:59:32;;;;;;;4.03;2.23;;;10.50;99.90;;;;;;5057665;28;20454;-67
2022/12/28 13:02:13;;;;;;;2.00;1.70;;;10.50;99.90;;;;;;5043933;28;20458;-66
2022/12/28 13:04:42;;;;;;;2.63;2.13;;;10.60;99.90;;;;;;5056455;28;20471;-67
2022/12/28 13:07:18;;;;;;;2.73;2.40;;;10.50;99.90;;;;;;5056597;28;20465;-68
2022/12/28 13:09:45;;;;;;;2.87;2.57;;;10.40;99.90;;;;;;5057184;28;20450;-68
2022/12/28 13:12:16;;;;;;;2.33;1.83;;;10.30;99.90;;;;;;5057035;28;20454;-69
2022/12/28 13:14:46;;;;;;;6.67;1.70;;;10.20;99.90;;;;;;5056652;28;20440;-68
2022/12/28 13:17:18;;;;;;;3.17;2.10;;;10.30;99.90;;;;;;5048390;28;20467;-68
2022/12/28 13:19:45;;;;;;;3.33;1.80;;;10.60;99.90;;;;;;5056312;28;20790;-68
2022/12/28 13:22:26;;;;;;;4.23;1.80;;;11.00;99.90;;;;;;5048385;28;20950;-67
2022/12/28 13:24:53;;;;;;;3.60;1.37;;;11.50;99.90;;;;;;5056359;28;20944;-68
2022/12/28 13:27:22;;;;;;;3.10;2.17;;;12.00;99.90;;;;;;5056581;28;20856;-68
2022/12/28 13:29:53;;;;;;;4.87;1.83;;;12.40;99.90;;;;;;5056632;28;20469;-67
2022/12/28 13:32:27;;;;;;;2.33;2.13;;;12.70;99.90;;;;;;5056494;28;20539;-67
2022/12/28 13:34:54;;;;;;;4.53;1.80;;;12.50;99.90;;;;;;5056896;28;20443;-68
2022/12/28 13:37:21;;;;;;;3.80;2.00;;;12.10;99.90;;;;;;5056527;28;20542;-68